ADDS METAR Data INFO
IDs: Format: Raw Decoded Include TAF

Data at: 2147 UTC 15 Dec 2017

KRBO 152135Z AUTO 21003KT 10SM SCT085 BKN100 11/06 A3028 RMK AO2 T01100056
KRBO 152115Z AUTO 00000KT 10SM SCT080 BKN110 11/06 A3027 RMK AO2 T01100061
KRBO 152055Z AUTO 00000KT 10SM -DZ SCT060 SCT080 BKN095 11/06 A3027 RMK AO2 T01100055
KRBO 152035Z AUTO 28003KT 10SM -DZ SCT060 BKN080 BKN095 11/05 A3028 RMK AO2 T01070052
KRBO 152015Z AUTO 00000KT 10SM -DZ SCT043 SCT060 BKN080 11/05 A3028 RMK AO2 T01060050
KRBO 151955Z AUTO 00000KT 10SM -DZ SCT035 SCT042 BKN070 11/05 A3028 RMK AO2 T01050047
KRBO 151935Z AUTO 00000KT 10SM -RA SCT037 SCT070 BKN090 10/05 A3030 RMK AO2 T01040047
KRBO 151915Z AUTO 00000KT 10SM -RA BKN100 10/05 A3031 RMK AO2 T01030048
KRBO 151855Z AUTO 00000KT 10SM -RA SCT060 SCT070 BKN100 10/05 A3032 RMK AO2 T01010045
KRBO 151835Z AUTO 00000KT 10SM -RA SCT065 SCT070 SCT095 10/04 A3033 RMK AO2 P0001 T01000041
KRBO 151815Z AUTO 00000KT 10SM DZ SCT030 SCT037 BKN046 10/05 A3035 RMK AO2 T01000049
KRBO 151755Z AUTO 36004KT 10SM DZ SCT038 SCT046 OVC100 10/05 A3035 RMK AO2 T01000052 10100 20076
KRBO 151735Z AUTO 36004KT 10SM OVC100 10/05 A3035 RMK AO2 T00970052
KRBO 151715Z AUTO 36006KT 10SM OVC100 10/05 A3035 RMK AO2 T00950048
KRBO 151655Z AUTO 01007KT 10SM SCT041 SCT049 OVC100 09/05 A3034 RMK AO2 T00920051
KRBO 151635Z AUTO 36007KT 10SM DZ SCT038 BKN060 OVC065 09/06 A3034 RMK AO2 T00880056
KRBO 151615Z AUTO 36005KT 10SM -DZ SCT036 BKN044 OVC075 08/06 A3033 RMK AO2 T00840056
KRBO 151555Z AUTO 01006KT 10SM DZ SCT036 BKN044 OVC050 08/06 A3031 RMK AO2 T00810057
KRBO 151535Z AUTO 01006KT 10SM -RA SCT037 BKN045 OVC055 08/05 A3031 RMK AO2 P0001 T00780053
KRBO 151515Z AUTO 01009KT 10SM -RA SCT036 SCT046 OVC055 08/05 A3029 RMK AO2 T00780052
KRBO 151455Z AUTO 01009KT 10SM RA SCT041 BKN055 OVC100 08/05 A3029 RMK AO2 T00770052
KRBO 151435Z AUTO 36011KT 10SM -RA SCT035 BKN048 OVC110 08/06 A3028 RMK AO2 P0001 T00760055
KRBO 151415Z AUTO 36013G20KT 10SM -RA BKN047 OVC070 08/05 A3025 RMK AO2 T00760053
KRBO 151355Z AUTO 36014G19KT 10SM -RA SCT047 BKN060 OVC090 08/05 A3027 RMK AO2 T00770052
KRBO 151335Z AUTO 35015G18KT 7SM -RA SCT060 SCT070 OVC090 08/05 A3026 RMK AO2 T00800049
KRBO 151315Z AUTO 35012G18KT 10SM -DZ SCT060 BKN100 OVC120 09/05 A3024 RMK AO2 T00850048
KRBO 151255Z AUTO 35012G17KT 10SM SCT044 SCT060 BKN110 09/05 A3023 RMK AO2 T00900050
KRBO 151235Z AUTO 36018G22KT 10SM -RA SCT045 BKN095 OVC110 09/05 A3021 RMK AO2 T00930046
KRBO 151215Z AUTO 36014G21KT 10SM UP SCT045 SCT050 OVC110 10/05 A3020 RMK AO2 T00970045
KRBO 151155Z AUTO 35012KT 10SM -DZ SCT045 SCT060 OVC110 10/06 A3020 RMK AO2 60002 70002 T00960055 10131 20095
KRBO 151135Z AUTO 35013G17KT 10SM RA SCT050 SCT060 OVC080 10/06 A3019 RMK AO2 T00950057
KRBO 151115Z AUTO 35010KT 10SM -DZ SCT047 SCT060 OVC080 10/06 A3018 RMK AO2 T00970060
KRBO 151055Z AUTO 36011KT 10SM DZ SCT048 SCT055 OVC080 10/06 A3018 RMK AO2 T00960061
KRBO 151035Z AUTO 36011KT 10SM -RA BKN070 OVC090 10/06 A3017 RMK AO2 P0001 T00980061
KRBO 151015Z AUTO 36009KT 10SM -RA SCT070 OVC090 10/06 A3017 RMK AO2 P0001 T01000063
KRBO 150955Z AUTO 36010KT 10SM -RA BKN070 OVC090 10/07 A3016 RMK AO2 P0001 T01010070
KRBO 150935Z AUTO 36009KT 10SM -RA SCT044 SCT070 OVC100 10/07 A3016 RMK AO2 P0002 T01020073
KRBO 150915Z AUTO 01009KT 10SM -RA SCT044 BKN060 OVC100 10/07 A3016 RMK AO2 P0001 T01040072
KRBO 150855Z AUTO 01009KT 10SM -RA SCT034 BKN046 OVC060 11/08 A3015 RMK AO2 60001 T01050077
KRBO 150835Z AUTO 01009KT 10SM RA SCT034 BKN060 OVC090 11/08 A3016 RMK AO2 P0003 T01090077
KRBO 150815Z AUTO 36010KT 10SM -RA SCT041 BKN075 OVC090 11/08 A3015 RMK AO2 P0002 T01120082
KRBO 150755Z AUTO 36010KT 10SM -RA SCT037 SCT045 OVC090 12/09 A3013 RMK AO2 P0001 T01150086
KRBO 150735Z AUTO 36009KT 10SM -RA SCT075 OVC100 12/09 A3012 RMK AO2 T01200085
KRBO 150715Z AUTO 36007KT 10SM -RA SCT041 SCT050 OVC100 12/09 A3012 RMK AO2 T01220087
KRBO 150655Z AUTO 01008KT 10SM RA SCT039 SCT050 OVC090 13/08 A3011 RMK AO2 T01270081
KRBO 150635Z AUTO 02006KT 10SM OVC100 13/08 A3010 RMK AO2 P0001 T01310079
KRBO 150615Z AUTO 03006KT 10SM -DZ SCT080 OVC100 13/08 A3010 RMK AO2 P0001 T01300081
KRBO 150555Z AUTO 02008KT 10SM -RA SCT035 BKN080 OVC100 13/08 A3010 RMK AO2 T01280082 10171 20128 402060100
KRBO 150535Z AUTO 02007KT 10SM DZ SCT033 SCT080 OVC100 13/08 A3010 RMK AO2 T01310082
KRBO 150515Z AUTO 01009KT 10SM -RA OVC110 14/08 A3009 RMK AO2 T01360079
KRBO 150455Z AUTO 02008KT 10SM -DZ OVC110 14/08 A3007 RMK AO2 T01410078
KRBO 150435Z AUTO 02009KT 10SM BKN100 14/08 A3006 RMK AO2 T01430078
KRBO 150415Z AUTO 02009G14KT 10SM BKN110 15/08 A3006 RMK AO2 T01460081
KRBO 150355Z AUTO 02010G15KT 10SM BKN110 15/09 A3005 RMK AO2 T01500088
KRBO 150335Z AUTO 03007KT 10SM BKN110 15/11 A3004 RMK AO2 T01500109
KRBO 150315Z AUTO 01005KT 10SM SCT055 OVC110 15/13 A3004 RMK AO2 T01520125
KRBO 150255Z AUTO 03006KT 10SM -RA SCT039 SCT055 OVC100 16/13 A3003 RMK AO2 T01550125
KRBO 150235Z AUTO 03006KT 10SM OVC100 16/13 A3003 RMK AO2 T01570125
KRBO 150215Z AUTO 02008KT 10SM OVC110 16/13 A3002 RMK AO2 T01560131
KRBO 150155Z AUTO 04007KT 10SM OVC110 16/14 A3001 RMK AO2 T01570140
KRBO 150135Z AUTO 01008KT 10SM OVC120 16/14 A3000 RMK AO2 T01620143
KRBO 150115Z AUTO 06006KT 10SM OVC110 16/15 A2999 RMK AO2 T01630145
KRBO 150055Z AUTO 07006KT 10SM -RA SCT050 BKN110 17/15 A2999 RMK AO2 T01650146
KRBO 150035Z AUTO 00000KT 10SM -RA SCT055 BKN110 17/15 A2999 RMK AO2 T01650146
KRBO 150015Z AUTO 09004KT 10SM OVC110 17/15 A2997 RMK AO2 T01680145
KRBO 142355Z AUTO 04006KT 10SM -RA OVC110 17/14 A2995 RMK AO2 T01710143 10206 20170
KRBO 142335Z AUTO 08009KT 10SM OVC120 17/15 A2993 RMK AO2 T01710145
KRBO 142315Z AUTO 07008KT 10SM BKN120 18/15 A2993 RMK AO2 T01750147
KRBO 142255Z AUTO 06008KT 10SM -RA SCT030 SCT045 OVC120 18/15 A2994 RMK AO2 T01760149
KRBO 142235Z AUTO 05005KT 10SM -RA SCT030 SCT045 BKN120 18/14 A2994 RMK AO2 T01820141
KRBO 142215Z AUTO 06004KT 10SM SCT120 19/14 A2994 RMK AO2 T01850141
KRBO 142155Z AUTO 05004KT 10SM SCT110 19/15 A2995 RMK AO2 T01870145
KRBO 142135Z AUTO 08006KT 10SM SCT110 19/15 A2994 RMK AO2 T01910145
KRBO 142115Z AUTO 09003KT 10SM SCT110 20/14 A2994 RMK AO2 T01950140
KRBO 142055Z AUTO 12004KT 10SM CLR 20/14 A2994 RMK AO2 T01960136
KRBO 142035Z AUTO 12005KT 10SM CLR 20/13 A2993 RMK AO2 T01970134
KRBO 142015Z AUTO 12003KT 10SM CLR 20/13 A2992 RMK AO2 T01990126
KRBO 141955Z AUTO 18005KT 10SM CLR 20/12 A2993 RMK AO2 T02030124
KRBO 141935Z AUTO 00000KT 10SM CLR 20/13 A2993 RMK AO2 T02030127
KRBO 141915Z AUTO 11003KT 10SM CLR 20/13 A2993 RMK AO2 T01950127
KRBO 141855Z AUTO 11005KT 10SM CLR 19/13 A2994 RMK AO2 T01930131
KRBO 141835Z AUTO 10005KT 10SM CLR 19/13 A2995 RMK AO2 T01900133
KRBO 141815Z AUTO 11005KT 10SM CLR 19/13 A2997 RMK AO2 T01860134
KRBO 141755Z AUTO 09005KT 10SM CLR 18/13 A2997 RMK AO2 T01830132 10183 20102
KRBO 141735Z AUTO 08006KT 10SM CLR 18/13 A2998 RMK AO2 T01790127
KRBO 141715Z AUTO 08004KT 10SM CLR 17/12 A3000 RMK AO2 T01720121
KRBO 141655Z AUTO 08005KT 10SM CLR 17/12 A2999 RMK AO2 T01660115
KRBO 141635Z AUTO 07003KT 10SM CLR 16/11 A3000 RMK AO2 T01590107
KRBO 141615Z AUTO 04003KT 10SM CLR 16/10 A2999 RMK AO2 T01550104
KRBO 141555Z AUTO 07004KT 10SM CLR 15/10 A2999 RMK AO2 T01500099
KRBO 141535Z AUTO 08003KT 10SM CLR 14/10 A2999 RMK AO2 T01420096
KRBO 141515Z AUTO 00000KT 10SM CLR 14/10 A2999 RMK AO2 T01350095
KRBO 141455Z AUTO 03003KT 10SM CLR 13/10 A2997 RMK AO2 T01330095
KRBO 141435Z AUTO 03003KT 10SM CLR 13/10 A2997 RMK AO2 T01290096
KRBO 141415Z AUTO 05003KT 10SM CLR 12/10 A2997 RMK AO2 T01180095
KRBO 141355Z AUTO 09003KT 10SM CLR 11/09 A2996 RMK AO2 T01130091
KRBO 141335Z AUTO 00000KT 10SM CLR 11/09 A2996 RMK AO2 T01060086
KRBO 141315Z AUTO 01004KT 10SM CLR 11/09 A2995 RMK AO2 T01070085
KRBO 141255Z AUTO 00000KT 10SM CLR 11/09 A2994 RMK AO2 T01080085
KRBO 141235Z AUTO 02005KT 10SM CLR 11/09 A2994 RMK AO2 T01060085
KRBO 141215Z AUTO 00000KT 10SM CLR 11/09 A2994 RMK AO2 T01050086
KRBO 141155Z AUTO 00000KT 10SM CLR 10/09 A2993 RMK AO2 T01010085 10116 20100
KRBO 141135Z AUTO 36004KT 10SM CLR 10/09 A2993 RMK AO2 T01030085
KRBO 141115Z AUTO 36005KT 10SM CLR 10/09 A2993 RMK AO2 T01030085
KRBO 141055Z AUTO 00000KT 10SM CLR 10/08 A2992 RMK AO2 T01040082
KRBO 141035Z AUTO 05003KT 10SM CLR 10/08 A2992 RMK AO2 T01040082
KRBO 141015Z AUTO 00000KT 10SM CLR 11/08 A2992 RMK AO2 T01080083
KRBO 140955Z AUTO 00000KT 10SM CLR 11/08 A2993 RMK AO2 T01110083